sensor_id;sensor_type;location;lat;lon;timestamp;temperature;humidity
6956;DHT22;50345;51.136;16.886;2024-01-15T00:02:16;2.20;99.90
6956;DHT22;50345;51.136;16.886;2024-01-15T00:04:41;2.30;99.90
6956;DHT22;50345;51.136;16.886;2024-01-15T00:07:08;2.30;99.90
6956;DHT22;50345;51.136;16.886;2024-01-15T00:09:33;2.30;99.90
6956;DHT22;50345;51.136;16.886;2024-01-15T00:11:59;2.30;99.90
6956;DHT22;50345;51.136;16.886;2024-01-15T00:14:25;2.40;99.90
6956;DHT22;50345;51.136;16.886;2024-01-15T00:16:51;2.40;99.90
6956;DHT22;50345;51.136;16.886;2024-01-15T00:19:17;2.40;99.90
6956;DHT22;50345;51.136;16.886;2024-01-15T00:21:44;2.40;99.90
6956;DHT22;50345;51.136;16.886;2024-01-15T00:24:09;2.50;99.90
6956;DHT22;50345;51.136;16.886;2024-01-15T00:26:35;2.50;99.90
6956;DHT22;50345;51.136;16.886;2024-01-15T00:29:00;2.50;99.90
6956;DHT22;50345;51.136;16.886;2024-01-15T00:31:26;2.50;99.90
6956;DHT22;50345;51.136;16.886;2024-01-15T00:33:52;2.50;99.90
6956;DHT22;50345;51.136;16.886;2024-01-15T00:36:18;2.50;99.90
6956;DHT22;50345;51.136;16.886;2024-01-15T00:38:46;2.50;99.90
6956;DHT22;50345;51.136;16.886;2024-01-15T00:41:13;2.50;99.90
6956;DHT22;50345;51.136;16.886;2024-01-15T00:43:40;2.50;99.90
6956;DHT22;50345;51.136;16.886;2024-01-15T00:46:05;2.50;99.90
6956;DHT22;50345;51.136;16.886;2024-01-15T00:48:31;2.50;99.90
6956;DHT22;50345;51.136;16.886;2024-01-15T00:50:57;2.50;99.90
6956;DHT22;50345;51.136;16.886;2024-01-15T00:53:23;2.50;99.90
6956;DHT22;50345;51.136;16.886;2024-01-15T00:55:49;2.50;99.90
6956;DHT22;50345;51.136;16.886;2024-01-15T00:58:14;2.40;99.90
6956;DHT22;50345;51.136;16.886;2024-01-15T01:00:41;2.40;99.90
6956;DHT22;50345;51.136;16.886;2024-01-15T01:03:07;2.50;99.90
6956;DHT22;50345;51.136;16.886;2024-01-15T01:05:33;2.40;99.90
6956;DHT22;50345;51.136;16.886;2024-01-15T01:07:59;2.40;99.90
6956;DHT22;50345;51.136;16.886;2024-01-15T01:10:25;2.40;99.90
6956;DHT22;50345;51.136;16.886;2024-01-15T01:12:50;2.40;99.90
6956;DHT22;50345;51.136;16.886;2024-01-15T01:15:16;2.40;99.90
6956;DHT22;50345;51.136;16.886;2024-01-15T01:17:41;2.40;99.90
6956;DHT22;50345;51.136;16.886;2024-01-15T01:20:07;2.40;99.90
6956;DHT22;50345;51.136;16.886;2024-01-15T01:22:34;2.40;99.90
6956;DHT22;50345;51.136;16.886;2024-01-15T01:25:00;2.40;99.90
6956;DHT22;50345;51.136;16.886;2024-01-15T01:27:26;2.50;99.90
6956;DHT22;50345;51.136;16.886;2024-01-15T01:29:51;2.50;99.90
6956;DHT22;50345;51.136;16.886;2024-01-15T01:32:17;2.50;99.90
6956;DHT22;50345;51.136;16.886;2024-01-15T01:34:43;2.50;99.90
6956;DHT22;50345;51.136;16.886;2024-01-15T01:37:09;2.50;99.90
6956;DHT22;50345;51.136;16.886;2024-01-15T01:39:35;2.50;99.90
6956;DHT22;50345;51.136;16.886;2024-01-15T01:42:01;2.50;99.90
6956;DHT22;50345;51.136;16.886;2024-01-15T01:44:26;2.50;99.90
6956;DHT22;50345;51.136;16.886;2024-01-15T01:46:52;2.50;99.90
6956;DHT22;50345;51.136;16.886;2024-01-15T01:49:18;2.50;99.90
6956;DHT22;50345;51.136;16.886;2024-01-15T01:51:44;2.50;99.90
6956;DHT22;50345;51.136;16.886;2024-01-15T01:54:10;2.40;99.90
6956;DHT22;50345;51.136;16.886;2024-01-15T01:56:40;2.40;99.90
6956;DHT22;50345;51.136;16.886;2024-01-15T01:59:06;2.40;99.90
6956;DHT22;50345;51.136;16.886;2024-01-15T02:01:33;2.40;99.90
6956;DHT22;50345;51.136;16.886;2024-01-15T02:03:59;2.50;99.90
6956;DHT22;50345;51.136;16.886;2024-01-15T02:06:25;2.40;99.90
6956;DHT22;50345;51.136;16.886;2024-01-15T02:08:51;2.40;99.90
6956;DHT22;50345;51.136;16.886;2024-01-15T02:11:17;2.30;99.90
6956;DHT22;50345;51.136;16.886;2024-01-15T02:13:42;2.20;99.90
6956;DHT22;50345;51.136;16.886;2024-01-15T02:16:08;2.10;99.90
6956;DHT22;50345;51.136;16.886;2024-01-15T02:18:41;2.00;99.90
6956;DHT22;50345;51.136;16.886;2024-01-15T02:21:07;1.90;99.90
6956;DHT22;50345;51.136;16.886;2024-01-15T02:23:32;1.90;99.90
6956;DHT22;50345;51.136;16.886;2024-01-15T02:25:58;1.90;99.90
6956;DHT22;50345;51.136;16.886;2024-01-15T02:28:24;1.90;99.90
6956;DHT22;50345;51.136;16.886;2024-01-15T02:30:49;1.90;99.90
6956;DHT22;50345;51.136;16.886;2024-01-15T02:33:15;1.90;99.90
6956;DHT22;50345;51.136;16.886;2024-01-15T02:35:40;1.90;99.90
6956;DHT22;50345;51.136;16.886;2024-01-15T02:38:06;2.00;99.90
6956;DHT22;50345;51.136;16.886;2024-01-15T02:40:33;2.00;99.90
6956;DHT22;50345;51.136;16.886;2024-01-15T02:42:58;2.00;99.90
6956;DHT22;50345;51.136;16.886;2024-01-15T02:45:24;2.00;99.90
6956;DHT22;50345;51.136;16.886;2024-01-15T02:47:50;2.00;99.90
6956;DHT22;50345;51.136;16.886;2024-01-15T02:50:16;2.00;99.90
6956;DHT22;50345;51.136;16.886;2024-01-15T02:52:42;2.00;99.90
6956;DHT22;50345;51.136;16.886;2024-01-15T02:55:08;1.90;99.90
6956;DHT22;50345;51.136;16.886;2024-01-15T02:57:34;1.90;99.90
6956;DHT22;50345;51.136;16.886;2024-01-15T02:59:59;1.90;99.90
6956;DHT22;50345;51.136;16.886;2024-01-15T03:02:25;1.90;99.90
6956;DHT22;50345;51.136;16.886;2024-01-15T03:04:50;1.90;99.90
6956;DHT22;50345;51.136;16.886;2024-01-15T03:07:16;1.90;99.90
6956;DHT22;50345;51.136;16.886;2024-01-15T03:09:42;1.90;99.90
6956;DHT22;50345;51.136;16.886;2024-01-15T03:12:07;2.00;99.90
6956;DHT22;50345;51.136;16.886;2024-01-15T03:14:33;2.00;99.90
6956;DHT22;50345;51.136;16.886;2024-01-15T03:16:58;2.00;99.90
6956;DHT22;50345;51.136;16.886;2024-01-15T03:19:26;2.10;99.90
6956;DHT22;50345;51.136;16.886;2024-01-15T03:21:51;2.10;99.90
6956;DHT22;50345;51.136;16.886;2024-01-15T03:24:17;2.10;99.90
6956;DHT22;50345;51.136;16.886;2024-01-15T03:26:42;2.10;99.90
6956;DHT22;50345;51.136;16.886;2024-01-15T03:29:08;2.10;99.90
6956;DHT22;50345;51.136;16.886;2024-01-15T03:31:33;2.20;99.90
6956;DHT22;50345;51.136;16.886;2024-01-15T03:33:59;2.10;99.90
6956;DHT22;50345;51.136;16.886;2024-01-15T03:36:25;2.20;99.90
6956;DHT22;50345;51.136;16.886;2024-01-15T03:38:50;2.20;99.90
6956;DHT22;50345;51.136;16.886;2024-01-15T03:41:16;2.10;99.90
6956;DHT22;50345;51.136;16.886;2024-01-15T03:43:41;2.10;99.90
6956;DHT22;50345;51.136;16.886;2024-01-15T03:46:07;2.10;99.90
6956;DHT22;50345;51.136;16.886;2024-01-15T03:48:33;2.10;99.90
6956;DHT22;50345;51.136;16.886;2024-01-15T03:50:58;2.10;99.90
6956;DHT22;50345;51.136;16.886;2024-01-15T03:53:24;2.10;99.90
6956;DHT22;50345;51.136;16.886;2024-01-15T03:55:50;2.10;99.90
6956;DHT22;50345;51.136;16.886;2024-01-15T03:58:15;2.10;99.90
6956;DHT22;50345;51.136;16.886;2024-01-15T04:00:42;2.20;99.90
6956;DHT22;50345;51.136;16.886;2024-01-15T04:03:08;2.20;99.90
6956;DHT22;50345;51.136;16.886;2024-01-15T04:05:34;2.20;99.90
6956;DHT22;50345;51.136;16.886;2024-01-15T04:07:59;2.20;99.90
6956;DHT22;50345;51.136;16.886;2024-01-15T04:10:25;2.20;99.90
6956;DHT22;50345;51.136;16.886;2024-01-15T04:12:51;2.20;99.90
6956;DHT22;50345;51.136;16.886;2024-01-15T04:15:16;2.20;99.90
6956;DHT22;50345;51.136;16.886;2024-01-15T04:17:42;2.20;99.90
6956;DHT22;50345;51.136;16.886;2024-01-15T04:20:08;2.20;99.90
6956;DHT22;50345;51.136;16.886;2024-01-15T04:22:35;2.20;99.90
6956;DHT22;50345;51.136;16.886;2024-01-15T04:25:00;2.20;99.90
6956;DHT22;50345;51.136;16.886;2024-01-15T04:27:26;2.30;99.90
6956;DHT22;50345;51.136;16.886;2024-01-15T04:29:52;2.30;99.90
6956;DHT22;50345;51.136;16.886;2024-01-15T04:32:18;2.30;99.90
6956;DHT22;50345;51.136;16.886;2024-01-15T04:34:43;2.40;99.90
6956;DHT22;50345;51.136;16.886;2024-01-15T04:37:09;2.40;99.90
6956;DHT22;50345;51.136;16.886;2024-01-15T04:39:35;2.40;99.90
6956;DHT22;50345;51.136;16.886;2024-01-15T04:42:00;2.40;99.90
6956;DHT22;50345;51.136;16.886;2024-01-15T04:44:26;2.40;99.90
6956;DHT22;50345;51.136;16.886;2024-01-15T04:46:51;2.50;99.90
6956;DHT22;50345;51.136;16.886;2024-01-15T04:49:17;2.50;99.90
6956;DHT22;50345;51.136;16.886;2024-01-15T04:51:42;2.40;99.90
6956;DHT22;50345;51.136;16.886;2024-01-15T04:54:08;2.50;99.90
6956;DHT22;50345;51.136;16.886;2024-01-15T04:56:34;2.40;99.90
6956;DHT22;50345;51.136;16.886;2024-01-15T04:58:59;2.40;99.90
6956;DHT22;50345;51.136;16.886;2024-01-15T05:01:25;2.40;99.90
6956;DHT22;50345;51.136;16.886;2024-01-15T05:03:50;2.40;99.90
6956;DHT22;50345;51.136;16.886;2024-01-15T05:06:16;2.40;99.90
6956;DHT22;50345;51.136;16.886;2024-01-15T05:08:41;2.40;99.90
6956;DHT22;50345;51.136;16.886;2024-01-15T05:11:07;2.40;99.90
6956;DHT22;50345;51.136;16.886;2024-01-15T05:13:32;2.50;99.90
6956;DHT22;50345;51.136;16.886;2024-01-15T05:15:58;2.50;99.90
6956;DHT22;50345;51.136;16.886;2024-01-15T05:18:24;2.50;99.90
6956;DHT22;50345;51.136;16.886;2024-01-15T05:20:49;2.50;99.90
6956;DHT22;50345;51.136;16.886;2024-01-15T05:23:15;2.50;99.90
6956;DHT22;50345;51.136;16.886;2024-01-15T05:25:40;2.40;99.90
6956;DHT22;50345;51.136;16.886;2024-01-15T05:28:06;2.40;99.90
6956;DHT22;50345;51.136;16.886;2024-01-15T05:30:31;2.30;99.90
6956;DHT22;50345;51.136;16.886;2024-01-15T05:32:57;2.20;99.90
6956;DHT22;50345;51.136;16.886;2024-01-15T05:35:23;2.20;99.90
6956;DHT22;50345;51.136;16.886;2024-01-15T05:37:48;2.00;99.90
6956;DHT22;50345;51.136;16.886;2024-01-15T05:40:14;1.90;99.90
6956;DHT22;50345;51.136;16.886;2024-01-15T05:42:40;1.80;99.90
6956;DHT22;50345;51.136;16.886;2024-01-15T05:45:06;1.70;99.90
6956;DHT22;50345;51.136;16.886;2024-01-15T05:47:32;1.70;99.90
6956;DHT22;50345;51.136;16.886;2024-01-15T05:50:00;1.70;99.90
6956;DHT22;50345;51.136;16.886;2024-01-15T05:52:26;1.70;99.90
6956;DHT22;50345;51.136;16.886;2024-01-15T05:54:51;1.60;99.90
6956;DHT22;50345;51.136;16.886;2024-01-15T05:57:17;1.60;99.90
6956;DHT22;50345;51.136;16.886;2024-01-15T05:59:44;1.70;99.90
6956;DHT22;50345;51.136;16.886;2024-01-15T06:02:10;1.70;99.90
6956;DHT22;50345;51.136;16.886;2024-01-15T06:04:36;1.70;99.90
6956;DHT22;50345;51.136;16.886;2024-01-15T06:07:01;1.70;99.90
6956;DHT22;50345;51.136;16.886;2024-01-15T06:09:27;1.70;99.90
6956;DHT22;50345;51.136;16.886;2024-01-15T06:11:53;1.70;99.90
6956;DHT22;50345;51.136;16.886;2024-01-15T06:14:19;1.80;99.90
6956;DHT22;50345;51.136;16.886;2024-01-15T06:16:44;1.80;99.90
6956;DHT22;50345;51.136;16.886;2024-01-15T06:19:10;1.80;99.90
6956;DHT22;50345;51.136;16.886;2024-01-15T06:21:36;1.80;99.90
6956;DHT22;50345;51.136;16.886;2024-01-15T06:24:01;1.90;99.90
6956;DHT22;50345;51.136;16.886;2024-01-15T06:26:27;1.90;99.90
6956;DHT22;50345;51.136;16.886;2024-01-15T06:28:52;1.90;99.90
6956;DHT22;50345;51.136;16.886;2024-01-15T06:31:18;2.00;99.90
6956;DHT22;50345;51.136;16.886;2024-01-15T06:33:44;2.00;99.90
6956;DHT22;50345;51.136;16.886;2024-01-15T06:36:12;2.00;99.90
6956;DHT22;50345;51.136;16.886;2024-01-15T06:38:38;2.00;99.90
6956;DHT22;50345;51.136;16.886;2024-01-15T06:41:03;2.00;99.90
6956;DHT22;50345;51.136;16.886;2024-01-15T06:43:29;2.00;99.90
6956;DHT22;50345;51.136;16.886;2024-01-15T06:45:54;1.90;99.90
6956;DHT22;50345;51.136;16.886;2024-01-15T06:48:20;1.90;99.90
6956;DHT22;50345;51.136;16.886;2024-01-15T06:50:46;1.90;99.90
6956;DHT22;50345;51.136;16.886;2024-01-15T06:53:11;1.90;99.90
6956;DHT22;50345;51.136;16.886;2024-01-15T06:55:38;1.90;99.90
6956;DHT22;50345;51.136;16.886;2024-01-15T06:58:04;1.90;99.90
6956;DHT22;50345;51.136;16.886;2024-01-15T07:00:30;1.90;99.90
6956;DHT22;50345;51.136;16.886;2024-01-15T07:02:55;1.90;99.90
6956;DHT22;50345;51.136;16.886;2024-01-15T07:05:21;1.90;99.90
6956;DHT22;50345;51.136;16.886;2024-01-15T07:07:46;1.90;99.90
6956;DHT22;50345;51.136;16.886;2024-01-15T07:10:13;1.90;99.90
6956;DHT22;50345;51.136;16.886;2024-01-15T07:12:38;1.90;99.90
6956;DHT22;50345;51.136;16.886;2024-01-15T07:15:04;1.90;99.90
6956;DHT22;50345;51.136;16.886;2024-01-15T07:17:32;1.90;99.90
6956;DHT22;50345;51.136;16.886;2024-01-15T07:19:57;1.90;99.90
6956;DHT22;50345;51.136;16.886;2024-01-15T07:22:23;1.90;99.90
6956;DHT22;50345;51.136;16.886;2024-01-15T07:24:49;2.00;99.90
6956;DHT22;50345;51.136;16.886;2024-01-15T07:27:14;2.00;99.90
6956;DHT22;50345;51.136;16.886;2024-01-15T07:29:40;2.00;99.90
6956;DHT22;50345;51.136;16.886;2024-01-15T07:32:05;2.00;99.90
6956;DHT22;50345;51.136;16.886;2024-01-15T07:34:33;2.10;99.90
6956;DHT22;50345;51.136;16.886;2024-01-15T07:36:58;2.10;99.90
6956;DHT22;50345;51.136;16.886;2024-01-15T07:39:24;2.20;99.90
6956;DHT22;50345;51.136;16.886;2024-01-15T07:41:51;2.20;99.90
6956;DHT22;50345;51.136;16.886;2024-01-15T07:44:17;2.20;99.90
6956;DHT22;50345;51.136;16.886;2024-01-15T07:46:46;2.20;99.90
6956;DHT22;50345;51.136;16.886;2024-01-15T07:49:12;2.30;99.90
6956;DHT22;50345;51.136;16.886;2024-01-15T07:51:37;2.30;99.90
6956;DHT22;50345;51.136;16.886;2024-01-15T07:54:03;2.30;99.90
6956;DHT22;50345;51.136;16.886;2024-01-15T07:56:29;2.30;99.90
6956;DHT22;50345;51.136;16.886;2024-01-15T07:58:55;2.40;99.90
6956;DHT22;50345;51.136;16.886;2024-01-15T08:01:21;2.40;99.90
6956;DHT22;50345;51.136;16.886;2024-01-15T08:03:47;2.40;99.90
6956;DHT22;50345;51.136;16.886;2024-01-15T08:06:13;2.40;99.90
6956;DHT22;50345;51.136;16.886;2024-01-15T08:08:39;2.50;99.90
6956;DHT22;50345;51.136;16.886;2024-01-15T08:11:04;2.40;99.90
6956;DHT22;50345;51.136;16.886;2024-01-15T08:13:30;2.50;99.90
6956;DHT22;50345;51.136;16.886;2024-01-15T08:15:56;2.50;99.90
6956;DHT22;50345;51.136;16.886;2024-01-15T08:18:21;2.50;99.90
6956;DHT22;50345;51.136;16.886;2024-01-15T08:20:47;2.60;99.90
6956;DHT22;50345;51.136;16.886;2024-01-15T08:23:13;2.50;99.90
6956;DHT22;50345;51.136;16.886;2024-01-15T08:25:38;2.60;99.90
6956;DHT22;50345;51.136;16.886;2024-01-15T08:28:04;2.60;99.90
6956;DHT22;50345;51.136;16.886;2024-01-15T08:30:29;2.70;99.90
6956;DHT22;50345;51.136;16.886;2024-01-15T08:32:56;2.70;99.90
6956;DHT22;50345;51.136;16.886;2024-01-15T08:35:22;2.70;99.90
6956;DHT22;50345;51.136;16.886;2024-01-15T08:37:51;2.70;99.90
6956;DHT22;50345;51.136;16.886;2024-01-15T08:40:17;2.70;99.90
6956;DHT22;50345;51.136;16.886;2024-01-15T08:42:43;2.70;99.90
6956;DHT22;50345;51.136;16.886;2024-01-15T08:45:09;2.70;99.90
6956;DHT22;50345;51.136;16.886;2024-01-15T08:47:35;2.70;99.90
6956;DHT22;50345;51.136;16.886;2024-01-15T08:50:02;2.70;99.90
6956;DHT22;50345;51.136;16.886;2024-01-15T08:52:28;2.70;99.90
6956;DHT22;50345;51.136;16.886;2024-01-15T08:54:55;2.70;99.90
6956;DHT22;50345;51.136;16.886;2024-01-15T08:57:20;2.80;99.90
6956;DHT22;50345;51.136;16.886;2024-01-15T08:59:47;2.80;99.90
6956;DHT22;50345;51.136;16.886;2024-01-15T09:02:13;2.90;99.90
6956;DHT22;50345;51.136;16.886;2024-01-15T09:04:39;2.90;99.90
6956;DHT22;50345;51.136;16.886;2024-01-15T09:07:04;2.90;99.90
6956;DHT22;50345;51.136;16.886;2024-01-15T09:09:30;2.90;99.90
6956;DHT22;50345;51.136;16.886;2024-01-15T09:11:56;2.90;99.90
6956;DHT22;50345;51.136;16.886;2024-01-15T09:14:21;2.90;99.90
6956;DHT22;50345;51.136;16.886;2024-01-15T09:16:49;3.00;99.90
6956;DHT22;50345;51.136;16.886;2024-01-15T09:19:15;3.00;99.90
6956;DHT22;50345;51.136;16.886;2024-01-15T09:21:40;3.00;99.90
6956;DHT22;50345;51.136;16.886;2024-01-15T09:24:06;3.00;99.90
6956;DHT22;50345;51.136;16.886;2024-01-15T09:26:31;3.00;99.90
6956;DHT22;50345;51.136;16.886;2024-01-15T09:28:57;3.00;99.90
6956;DHT22;50345;51.136;16.886;2024-01-15T09:31:23;3.00;99.90
6956;DHT22;50345;51.136;16.886;2024-01-15T09:33:49;3.00;99.90
6956;DHT22;50345;51.136;16.886;2024-01-15T09:36:17;2.90;99.90
6956;DHT22;50345;51.136;16.886;2024-01-15T09:38:43;2.90;99.90
6956;DHT22;50345;51.136;16.886;2024-01-15T09:41:09;2.90;99.90
6956;DHT22;50345;51.136;16.886;2024-01-15T09:43:36;3.00;99.90
6956;DHT22;50345;51.136;16.886;2024-01-15T09:46:03;3.00;99.90
6956;DHT22;50345;51.136;16.886;2024-01-15T09:48:29;3.10;99.90
6956;DHT22;50345;51.136;16.886;2024-01-15T09:50:56;3.10;99.90
6956;DHT22;50345;51.136;16.886;2024-01-15T09:53:23;3.20;99.90
6956;DHT22;50345;51.136;16.886;2024-01-15T09:55:50;3.10;99.90
6956;DHT22;50345;51.136;16.886;2024-01-15T09:58:15;3.10;99.90
6956;DHT22;50345;51.136;16.886;2024-01-15T10:00:41;3.10;99.90
6956;DHT22;50345;51.136;16.886;2024-01-15T10:03:09;3.10;99.90
6956;DHT22;50345;51.136;16.886;2024-01-15T10:05:37;3.10;99.90
6956;DHT22;50345;51.136;16.886;2024-01-15T10:08:03;3.20;99.90
6956;DHT22;50345;51.136;16.886;2024-01-15T10:10:29;3.20;99.90
6956;DHT22;50345;51.136;16.886;2024-01-15T10:12:58;3.30;99.90
6956;DHT22;50345;51.136;16.886;2024-01-15T10:15:26;3.30;99.90
6956;DHT22;50345;51.136;16.886;2024-01-15T10:17:52;3.30;99.90
6956;DHT22;50345;51.136;16.886;2024-01-15T10:20:17;3.40;99.90
6956;DHT22;50345;51.136;16.886;2024-01-15T10:22:44;3.40;99.90
6956;DHT22;50345;51.136;16.886;2024-01-15T10:25:12;3.30;99.90
6956;DHT22;50345;51.136;16.886;2024-01-15T10:27:38;3.40;99.90
6956;DHT22;50345;51.136;16.886;2024-01-15T10:30:04;3.50;99.90
6956;DHT22;50345;51.136;16.886;2024-01-15T10:32:31;3.50;99.90
6956;DHT22;50345;51.136;16.886;2024-01-15T10:34:57;3.50;99.90
6956;DHT22;50345;51.136;16.886;2024-01-15T10:37:24;3.60;99.90
6956;DHT22;50345;51.136;16.886;2024-01-15T10:39:49;3.60;99.90
6956;DHT22;50345;51.136;16.886;2024-01-15T10:42:15;3.70;99.90
6956;DHT22;50345;51.136;16.886;2024-01-15T10:44:43;3.70;99.90
6956;DHT22;50345;51.136;16.886;2024-01-15T10:47:09;3.80;99.90
6956;DHT22;50345;51.136;16.886;2024-01-15T10:49:35;3.90;99.90
6956;DHT22;50345;51.136;16.886;2024-01-15T10:52:02;4.00;99.90
6956;DHT22;50345;51.136;16.886;2024-01-15T10:54:28;4.20;99.90
6956;DHT22;50345;51.136;16.886;2024-01-15T10:56:56;4.30;99.90
6956;DHT22;50345;51.136;16.886;2024-01-15T10:59:21;4.30;99.90
6956;DHT22;50345;51.136;16.886;2024-01-15T11:01:49;4.50;99.90
6956;DHT22;50345;51.136;16.886;2024-01-15T11:04:15;5.10;99.90
6956;DHT22;50345;51.136;16.886;2024-01-15T11:06:50;5.90;99.90
6956;DHT22;50345;51.136;16.886;2024-01-15T11:09:16;6.60;99.90
6956;DHT22;50345;51.136;16.886;2024-01-15T11:11:47;7.30;98.70
6956;DHT22;50345;51.136;16.886;2024-01-15T11:14:41;7.90;93.90
6956;DHT22;50345;51.136;16.886;2024-01-15T11:17:10;8.10;91.10
6956;DHT22;50345;51.136;16.886;2024-01-15T11:19:43;8.00;86.80
6956;DHT22;50345;51.136;16.886;2024-01-15T11:22:10;7.50;85.70
6956;DHT22;50345;51.136;16.886;2024-01-15T11:24:40;7.00;86.00
6956;DHT22;50345;51.136;16.886;2024-01-15T11:27:07;6.30;89.20
6956;DHT22;50345;51.136;16.886;2024-01-15T11:29:37;6.10;90.90
6956;DHT22;50345;51.136;16.886;2024-01-15T11:32:09;5.90;90.90
6956;DHT22;50345;51.136;16.886;2024-01-15T11:34:57;5.90;92.20
6956;DHT22;50345;51.136;16.886;2024-01-15T11:37:24;6.00;91.60
6956;DHT22;50345;51.136;16.886;2024-01-15T11:40:02;5.80;91.70
6956;DHT22;50345;51.136;16.886;2024-01-15T11:42:35;5.60;92.00
6956;DHT22;50345;51.136;16.886;2024-01-15T11:45:02;5.40;93.30
6956;DHT22;50345;51.136;16.886;2024-01-15T11:50:13;5.80;92.40
6956;DHT22;50345;51.136;16.886;2024-01-15T11:52:39;5.50;92.40
6956;DHT22;50345;51.136;16.886;2024-01-15T11:55:14;5.30;93.50
6956;DHT22;50345;51.136;16.886;2024-01-15T12:00:14;4.90;94.60
6956;DHT22;50345;51.136;16.886;2024-01-15T12:02:42;4.70;95.40
6956;DHT22;50345;51.136;16.886;2024-01-15T12:05:09;4.50;96.20
6956;DHT22;50345;51.136;16.886;2024-01-15T12:07:34;4.30;97.10
6956;DHT22;50345;51.136;16.886;2024-01-15T12:10:01;4.20;98.10
6956;DHT22;50345;51.136;16.886;2024-01-15T12:15:03;3.90;99.70
6956;DHT22;50345;51.136;16.886;2024-01-15T12:17:29;3.90;99.90
6956;DHT22;50345;51.136;16.886;2024-01-15T12:19:55;3.90;99.90
6956;DHT22;50345;51.136;16.886;2024-01-15T12:22:21;3.80;99.90
6956;DHT22;50345;51.136;16.886;2024-01-15T12:24:47;3.90;99.90
6956;DHT22;50345;51.136;16.886;2024-01-15T12:27:13;3.80;99.90
6956;DHT22;50345;51.136;16.886;2024-01-15T12:29:38;3.80;99.90
6956;DHT22;50345;51.136;16.886;2024-01-15T12:32:05;3.80;99.90
6956;DHT22;50345;51.136;16.886;2024-01-15T12:34:31;3.70;99.90
6956;DHT22;50345;51.136;16.886;2024-01-15T12:36:58;3.80;99.90
6956;DHT22;50345;51.136;16.886;2024-01-15T12:39:24;3.80;99.90
6956;DHT22;50345;51.136;16.886;2024-01-15T12:41:51;3.70;99.90
6956;DHT22;50345;51.136;16.886;2024-01-15T12:44:16;3.70;99.90
6956;DHT22;50345;51.136;16.886;2024-01-15T12:46:42;3.60;99.90
6956;DHT22;50345;51.136;16.886;2024-01-15T12:49:08;3.60;99.90
6956;DHT22;50345;51.136;16.886;2024-01-15T12:51:36;3.60;99.90
6956;DHT22;50345;51.136;16.886;2024-01-15T12:54:02;3.60;99.90
6956;DHT22;50345;51.136;16.886;2024-01-15T12:56:28;3.60;99.90
6956;DHT22;50345;51.136;16.886;2024-01-15T12:58:53;3.60;99.90
6956;DHT22;50345;51.136;16.886;2024-01-15T13:01:19;3.60;99.90
6956;DHT22;50345;51.136;16.886;2024-01-15T13:03:44;3.50;99.90
6956;DHT22;50345;51.136;16.886;2024-01-15T13:06:10;3.50;99.90
6956;DHT22;50345;51.136;16.886;2024-01-15T13:08:35;3.40;99.90
6956;DHT22;50345;51.136;16.886;2024-01-15T13:11:01;3.40;99.90
6956;DHT22;50345;51.136;16.886;2024-01-15T13:13:27;3.40;99.90
6956;DHT22;50345;51.136;16.886;2024-01-15T13:15:53;3.40;99.90
6956;DHT22;50345;51.136;16.886;2024-01-15T13:18:18;3.30;99.90
6956;DHT22;50345;51.136;16.886;2024-01-15T13:20:44;3.30;99.90
6956;DHT22;50345;51.136;16.886;2024-01-15T13:23:11;3.30;99.90
6956;DHT22;50345;51.136;16.886;2024-01-15T13:25:37;3.30;99.90
6956;DHT22;50345;51.136;16.886;2024-01-15T13:28:04;3.30;99.90
6956;DHT22;50345;51.136;16.886;2024-01-15T13:30:30;3.30;99.90
6956;DHT22;50345;51.136;16.886;2024-01-15T13:32:56;3.30;99.90
6956;DHT22;50345;51.136;16.886;2024-01-15T13:35:23;3.30;99.90
6956;DHT22;50345;51.136;16.886;2024-01-15T13:37:48;3.30;99.90
6956;DHT22;50345;51.136;16.886;2024-01-15T13:40:14;3.30;99.90
6956;DHT22;50345;51.136;16.886;2024-01-15T13:42:45;3.30;99.90
6956;DHT22;50345;51.136;16.886;2024-01-15T13:45:11;3.30;99.90
6956;DHT22;50345;51.136;16.886;2024-01-15T13:47:40;3.20;99.90
6956;DHT22;50345;51.136;16.886;2024-01-15T13:50:07;3.20;99.90
6956;DHT22;50345;51.136;16.886;2024-01-15T13:52:32;3.20;99.90
6956;DHT22;50345;51.136;16.886;2024-01-15T13:54:58;3.20;99.90
6956;DHT22;50345;51.136;16.886;2024-01-15T13:57:23;3.20;99.90
6956;DHT22;50345;51.136;16.886;2024-01-15T13:59:49;3.20;99.90
6956;DHT22;50345;51.136;16.886;2024-01-15T14:02:15;3.20;99.90
6956;DHT22;50345;51.136;16.886;2024-01-15T14:04:40;3.20;99.90
6956;DHT22;50345;51.136;16.886;2024-01-15T14:07:09;3.20;99.90
6956;DHT22;50345;51.136;16.886;2024-01-15T14:09:34;3.10;99.90
6956;DHT22;50345;51.136;16.886;2024-01-15T14:12:00;3.20;99.90
6956;DHT22;50345;51.136;16.886;2024-01-15T14:14:25;3.10;99.90
6956;DHT22;50345;51.136;16.886;2024-01-15T14:16:51;3.10;99.90
6956;DHT22;50345;51.136;16.886;2024-01-15T14:19:16;3.10;99.90
6956;DHT22;50345;51.136;16.886;2024-01-15T14:21:43;3.10;99.90
6956;DHT22;50345;51.136;16.886;2024-01-15T14:24:09;3.10;99.90
6956;DHT22;50345;51.136;16.886;2024-01-15T14:26:34;3.10;99.90
6956;DHT22;50345;51.136;16.886;2024-01-15T14:29:00;3.10;99.90
6956;DHT22;50345;51.136;16.886;2024-01-15T14:31:25;3.10;99.90
6956;DHT22;50345;51.136;16.886;2024-01-15T14:33:52;3.10;99.90
6956;DHT22;50345;51.136;16.886;2024-01-15T14:36:18;3.10;99.90
6956;DHT22;50345;51.136;16.886;2024-01-15T14:38:43;3.10;99.90
6956;DHT22;50345;51.136;16.886;2024-01-15T14:41:09;3.10;99.90
6956;DHT22;50345;51.136;16.886;2024-01-15T14:43:34;3.10;99.90
6956;DHT22;50345;51.136;16.886;2024-01-15T14:46:00;3.10;99.90
6956;DHT22;50345;51.136;16.886;2024-01-15T14:48:25;3.10;99.90
6956;DHT22;50345;51.136;16.886;2024-01-15T14:50:51;3.10;99.90
6956;DHT22;50345;51.136;16.886;2024-01-15T14:53:16;3.10;99.90
6956;DHT22;50345;51.136;16.886;2024-01-15T14:55:43;3.10;99.90
6956;DHT22;50345;51.136;16.886;2024-01-15T14:58:08;3.10;99.90
6956;DHT22;50345;51.136;16.886;2024-01-15T15:00:34;3.00;99.90
6956;DHT22;50345;51.136;16.886;2024-01-15T15:03:00;3.00;99.90
6956;DHT22;50345;51.136;16.886;2024-01-15T15:05:25;3.00;99.90
6956;DHT22;50345;51.136;16.886;2024-01-15T15:07:51;3.00;99.90
6956;DHT22;50345;51.136;16.886;2024-01-15T15:10:17;3.00;99.90
6956;DHT22;50345;51.136;16.886;2024-01-15T15:12:43;3.00;99.90
6956;DHT22;50345;51.136;16.886;2024-01-15T15:15:09;3.00;99.90
6956;DHT22;50345;51.136;16.886;2024-01-15T15:17:37;3.10;99.90
6956;DHT22;50345;51.136;16.886;2024-01-15T15:20:03;3.10;99.90
6956;DHT22;50345;51.136;16.886;2024-01-15T15:22:29;3.00;99.90
6956;DHT22;50345;51.136;16.886;2024-01-15T15:24:54;3.00;99.90
6956;DHT22;50345;51.136;16.886;2024-01-15T15:27:20;3.00;99.90
6956;DHT22;50345;51.136;16.886;2024-01-15T15:29:45;3.00;99.90
6956;DHT22;50345;51.136;16.886;2024-01-15T15:32:13;3.00;99.90
6956;DHT22;50345;51.136;16.886;2024-01-15T15:34:39;3.00;99.90
6956;DHT22;50345;51.136;16.886;2024-01-15T15:37:04;3.00;99.90
6956;DHT22;50345;51.136;16.886;2024-01-15T15:39:30;3.00;99.90
6956;DHT22;50345;51.136;16.886;2024-01-15T15:41:56;3.00;99.90
6956;DHT22;50345;51.136;16.886;2024-01-15T15:44:22;2.90;99.90
6956;DHT22;50345;51.136;16.886;2024-01-15T15:46:47;2.90;99.90